createdAt,value
2023-04-30T00:01:52.528Z,86.80
2023-04-30T00:04:20.679Z,86.60
2023-04-30T00:06:48.705Z,86.80
2023-04-30T00:09:16.768Z,87.10
2023-04-30T00:11:46.568Z,86.90
2023-04-30T00:14:14.473Z,87.10
2023-04-30T00:16:42.444Z,87.00
2023-04-30T00:19:10.899Z,87.10
2023-04-30T00:21:38.910Z,86.90
2023-04-30T00:24:07.611Z,86.90
2023-04-30T00:26:35.677Z,86.80
2023-04-30T00:29:04.952Z,87.00
2023-04-30T00:31:33.031Z,87.20
2023-04-30T00:34:01.130Z,87.10
2023-04-30T00:36:29.242Z,87.00
2023-04-30T00:38:57.106Z,87.00
2023-04-30T00:41:26.829Z,87.00
2023-04-30T00:43:54.725Z,87.00
2023-04-30T00:46:24.270Z,87.00
2023-04-30T00:48:52.310Z,87.00
2023-04-30T00:51:20.451Z,87.10
2023-04-30T00:53:48.441Z,87.20
2023-04-30T00:56:17.330Z,87.20
2023-04-30T00:58:45.213Z,87.40
2023-04-30T01:01:13.662Z,87.20
2023-04-30T01:03:44.549Z,86.90
2023-04-30T01:06:12.692Z,87.00
2023-04-30T01:08:40.860Z,87.00
2023-04-30T01:11:18.397Z,87.10
2023-04-30T01:13:59.358Z,87.00
2023-04-30T01:16:29.680Z,87.30
2023-04-30T01:19:03.621Z,87.30
2023-04-30T01:21:33.684Z,87.20
2023-04-30T01:24:39.027Z,87.50
2023-04-30T01:27:16.674Z,87.40
2023-04-30T01:29:46.226Z,87.10
2023-04-30T01:32:14.598Z,87.20
2023-04-30T01:34:42.738Z,87.50
2023-04-30T01:37:21.911Z,87.50
2023-04-30T01:40:04.482Z,87.60
2023-04-30T01:42:42.665Z,87.90
2023-04-30T01:45:28.334Z,87.70
2023-04-30T01:48:04.540Z,87.70
2023-04-30T01:50:40.272Z,87.50
2023-04-30T01:53:12.086Z,87.40
2023-04-30T01:55:45.201Z,87.40
2023-04-30T01:58:16.268Z,87.50
2023-04-30T02:00:46.208Z,87.40
2023-04-30T02:03:14.325Z,87.40
2023-04-30T02:05:42.402Z,87.50
2023-04-30T02:08:10.322Z,87.50
2023-04-30T02:10:38.456Z,87.30
2023-04-30T02:13:06.500Z,87.40
2023-04-30T02:15:34.469Z,87.50
2023-04-30T02:18:03.958Z,87.50
2023-04-30T02:20:31.985Z,87.40
2023-04-30T02:23:00.065Z,87.50
2023-04-30T02:25:27.994Z,87.50
2023-04-30T02:27:55.853Z,87.60
2023-04-30T02:30:23.825Z,87.60
2023-04-30T02:32:51.741Z,87.60
2023-04-30T02:35:21.261Z,87.60
2023-04-30T02:37:49.326Z,87.70
2023-04-30T02:40:17.617Z,87.90
2023-04-30T02:42:45.537Z,88.00
2023-04-30T02:45:13.468Z,87.90
2023-04-30T02:47:41.678Z,87.70
2023-04-30T02:50:10.598Z,87.80
2023-04-30T02:52:39.896Z,87.70
2023-04-30T02:55:08.889Z,87.90
2023-04-30T02:57:36.924Z,87.80
2023-04-30T03:00:06.160Z,87.80
2023-04-30T03:02:34.430Z,87.70
2023-04-30T03:05:02.668Z,87.60
2023-04-30T03:07:30.828Z,87.80
2023-04-30T03:10:00.436Z,87.60
2023-04-30T03:12:28.432Z,87.60
2023-04-30T03:14:56.359Z,87.50
2023-04-30T03:17:24.984Z,87.70
2023-04-30T03:19:53.072Z,87.70
2023-04-30T03:22:23.630Z,87.70
2023-04-30T03:24:51.705Z,87.50
2023-04-30T03:27:21.258Z,87.80
2023-04-30T03:29:49.269Z,87.80
2023-04-30T03:32:17.612Z,87.90
2023-04-30T03:34:46.154Z,88.20
2023-04-30T03:37:14.459Z,88.00
2023-04-30T03:39:42.470Z,88.00
2023-04-30T03:42:10.656Z,87.90
2023-04-30T03:44:40.084Z,87.70
2023-04-30T03:47:08.413Z,87.80
2023-04-30T03:49:36.273Z,88.00
2023-04-30T03:52:05.686Z,87.80
2023-04-30T03:54:34.399Z,88.10
2023-04-30T03:57:04.588Z,87.90
2023-04-30T03:59:33.097Z,87.80
2023-04-30T04:02:02.990Z,87.90
2023-04-30T04:04:32.675Z,88.10
2023-04-30T04:07:01.341Z,88.00
2023-04-30T04:09:29.188Z,88.10
2023-04-30T04:11:58.085Z,88.10
2023-04-30T04:14:26.034Z,88.20
2023-04-30T04:16:54.087Z,88.20
2023-04-30T04:19:23.651Z,88.50
2023-04-30T04:21:51.567Z,88.60
2023-04-30T04:24:19.777Z,88.50
2023-04-30T04:26:48.196Z,88.50
2023-04-30T04:29:16.124Z,88.60
2023-04-30T04:31:44.370Z,88.60
2023-04-30T04:34:12.614Z,88.70
2023-04-30T04:36:41.883Z,88.80
2023-04-30T04:39:10.176Z,88.40
2023-04-30T04:41:38.146Z,88.50
2023-04-30T04:44:06.552Z,88.50
2023-04-30T04:46:38.640Z,88.60
2023-04-30T04:49:06.931Z,88.60
2023-04-30T04:51:35.147Z,88.60
2023-04-30T04:54:05.010Z,88.70
2023-04-30T04:56:33.200Z,89.00
2023-04-30T04:59:01.522Z,89.20
2023-04-30T05:01:29.658Z,89.40
2023-04-30T05:03:57.898Z,89.40
2023-04-30T05:06:27.042Z,89.70
2023-04-30T05:08:55.021Z,90.00
2023-04-30T05:11:24.516Z,90.00
2023-04-30T05:13:52.394Z,90.00
2023-04-30T05:16:20.438Z,89.90
2023-04-30T05:18:48.444Z,89.80
2023-04-30T05:21:16.564Z,89.70
2023-04-30T05:23:46.145Z,89.70
2023-04-30T05:26:14.430Z,89.70
2023-04-30T05:28:43.903Z,89.80
2023-04-30T05:31:12.356Z,89.20
2023-04-30T05:33:40.998Z,89.10
2023-04-30T05:36:09.146Z,89.00
2023-04-30T05:38:37.154Z,88.90
2023-04-30T05:41:05.668Z,88.70
2023-04-30T05:43:33.652Z,88.40
2023-04-30T05:46:03.713Z,88.40
2023-04-30T05:48:32.013Z,87.70
2023-04-30T05:51:00.286Z,87.60
2023-04-30T05:53:28.649Z,86.00
2023-04-30T05:55:56.799Z,86.00
2023-04-30T05:58:24.841Z,85.20
2023-04-30T06:00:53.334Z,84.80
2023-04-30T06:03:22.967Z,84.20
2023-04-30T06:05:51.115Z,84.00
2023-04-30T06:08:19.206Z,82.80
2023-04-30T06:10:47.160Z,82.00
2023-04-30T06:13:15.378Z,82.40
2023-04-30T06:15:43.558Z,81.70
2023-04-30T06:18:14.403Z,81.40
2023-04-30T06:20:43.817Z,81.00
2023-04-30T06:23:11.980Z,80.50
2023-04-30T06:25:40.733Z,80.60
2023-04-30T06:28:12.308Z,81.40
2023-04-30T06:30:40.366Z,80.20
2023-04-30T06:33:08.709Z,80.00
2023-04-30T06:35:36.969Z,79.60
2023-04-30T06:38:06.781Z,79.60
2023-04-30T06:40:39.634Z,78.50
2023-04-30T06:43:07.862Z,78.50
2023-04-30T06:45:36.751Z,77.70
2023-04-30T06:48:08.057Z,78.30
2023-04-30T06:50:45.059Z,77.60
2023-04-30T06:53:15.293Z,77.30
2023-04-30T06:55:44.296Z,76.40
2023-04-30T06:58:14.259Z,76.50
2023-04-30T07:00:45.053Z,76.10
2023-04-30T07:03:15.741Z,75.90
2023-04-30T07:05:44.002Z,74.70
2023-04-30T07:08:12.988Z,76.50
2023-04-30T07:10:42.199Z,75.00
2023-04-30T07:13:10.121Z,75.90
2023-04-30T07:15:38.846Z,74.10
2023-04-30T07:18:06.728Z,73.50
2023-04-30T07:20:34.990Z,74.50
2023-04-30T07:23:02.806Z,71.70
2023-04-30T07:25:30.746Z,71.80
2023-04-30T07:28:00.274Z,71.80
2023-04-30T07:30:28.199Z,71.60
2023-04-30T07:32:56.409Z,72.50
2023-04-30T07:35:24.285Z,72.30
2023-04-30T07:37:52.165Z,70.80
2023-04-30T07:40:29.155Z,71.80
2023-04-30T07:43:04.965Z,71.90
2023-04-30T07:45:34.937Z,69.50
2023-04-30T07:48:02.899Z,68.90
2023-04-30T07:50:34.179Z,71.20
2023-04-30T07:53:03.321Z,69.40
2023-04-30T07:55:31.355Z,70.30
2023-04-30T07:57:59.782Z,69.10
2023-04-30T08:00:31.233Z,69.40
2023-04-30T08:03:00.770Z,68.30
2023-04-30T08:05:28.885Z,68.60
2023-04-30T08:07:57.017Z,69.20
2023-04-30T08:10:25.319Z,67.80
2023-04-30T08:12:54.163Z,69.10
2023-04-30T08:15:22.411Z,67.20
2023-04-30T08:17:52.779Z,67.70
2023-04-30T08:20:23.706Z,66.40
2023-04-30T08:22:52.093Z,65.10
2023-04-30T08:25:20.210Z,66.80
2023-04-30T08:27:48.199Z,65.80
2023-04-30T08:30:16.178Z,67.20
2023-04-30T08:32:44.193Z,66.80
2023-04-30T08:35:13.552Z,65.90
2023-04-30T08:37:41.406Z,64.90
2023-04-30T08:40:11.965Z,64.40
2023-04-30T08:42:45.582Z,63.20
2023-04-30T08:45:14.516Z,63.90
2023-04-30T08:47:43.018Z,64.30
2023-04-30T08:50:11.286Z,63.40
2023-04-30T08:52:41.272Z,62.90
2023-04-30T08:55:11.191Z,61.70
2023-04-30T08:57:39.466Z,61.20
2023-04-30T09:00:09.669Z,63.50
2023-04-30T09:02:41.361Z,62.00
2023-04-30T09:05:12.646Z,63.10
2023-04-30T09:07:48.982Z,62.40
2023-04-30T09:10:21.615Z,62.30
2023-04-30T09:13:00.174Z,62.70
2023-04-30T09:15:28.239Z,61.00
2023-04-30T09:18:14.353Z,60.90
2023-04-30T09:20:56.736Z,61.50
2023-04-30T09:23:26.647Z,62.30
2023-04-30T09:25:54.556Z,61.50
2023-04-30T09:28:25.401Z,61.20
2023-04-30T09:30:53.951Z,60.70
2023-04-30T09:33:21.806Z,59.90
2023-04-30T09:35:49.887Z,62.50
2023-04-30T09:38:30.160Z,58.80
2023-04-30T09:41:00.752Z,59.50
2023-04-30T09:43:28.966Z,60.90
2023-04-30T09:45:59.650Z,58.90
2023-04-30T09:48:28.713Z,59.60
2023-04-30T09:50:56.735Z,59.80
2023-04-30T09:53:24.543Z,60.10
2023-04-30T09:55:54.948Z,59.90
2023-04-30T09:58:27.094Z,60.70
2023-04-30T10:00:57.093Z,60.60
2023-04-30T10:03:25.479Z,59.70
2023-04-30T10:05:54.514Z,59.20
2023-04-30T10:08:27.997Z,59.70
2023-04-30T10:11:01.268Z,60.20
2023-04-30T10:13:34.403Z,58.80
2023-04-30T10:16:09.229Z,59.40
2023-04-30T10:18:41.038Z,57.80
2023-04-30T10:21:14.133Z,59.30
2023-04-30T10:23:43.900Z,58.30
2023-04-30T10:26:13.599Z,57.70
2023-04-30T10:28:42.045Z,56.40
2023-04-30T10:31:11.407Z,57.40
2023-04-30T10:33:49.834Z,59.50
2023-04-30T10:36:27.746Z,58.60
2023-04-30T10:38:56.144Z,57.50
2023-04-30T10:41:27.917Z,56.80
2023-04-30T10:44:01.197Z,58.40
2023-04-30T10:46:29.963Z,57.70
2023-04-30T10:48:57.896Z,56.80
2023-04-30T10:51:45.168Z,56.60
2023-04-30T10:54:14.601Z,56.10
2023-04-30T10:56:46.885Z,57.40
2023-04-30T10:59:15.446Z,56.90
2023-04-30T11:02:07.202Z,54.70
2023-04-30T11:04:35.051Z,56.30
2023-04-30T11:07:08.277Z,56.70
2023-04-30T11:09:38.556Z,56.80
2023-04-30T11:12:16.452Z,58.10
2023-04-30T11:14:46.076Z,53.10
2023-04-30T11:17:23.022Z,53.30
2023-04-30T11:19:52.788Z,54.30
2023-04-30T11:22:24.022Z,56.40
2023-04-30T11:24:53.467Z,53.80
2023-04-30T11:27:24.277Z,52.80
2023-04-30T11:29:53.502Z,52.80
2023-04-30T11:32:23.619Z,55.20
2023-04-30T11:34:52.011Z,52.00
2023-04-30T11:37:24.769Z,52.30
2023-04-30T11:39:53.301Z,51.70
2023-04-30T11:42:22.697Z,52.70
2023-04-30T11:44:50.573Z,51.30
2023-04-30T11:47:18.404Z,53.60
2023-04-30T11:49:46.471Z,53.00
2023-04-30T11:52:14.529Z,52.40
2023-04-30T11:54:42.435Z,51.40
2023-04-30T11:57:10.338Z,50.60
2023-04-30T11:59:43.598Z,50.70
2023-04-30T12:02:15.354Z,49.90
2023-04-30T12:04:44.598Z,50.60
2023-04-30T12:07:13.047Z,50.90
2023-04-30T12:09:53.848Z,51.30
2023-04-30T12:12:29.005Z,52.50
2023-04-30T12:14:58.443Z,50.40
2023-04-30T12:17:33.526Z,48.50
2023-04-30T12:20:01.569Z,53.10
2023-04-30T12:22:30.002Z,49.20
2023-04-30T12:24:57.969Z,48.20
2023-04-30T12:27:25.609Z,47.80
2023-04-30T12:29:54.921Z,49.50
2023-04-30T12:32:24.385Z,51.60
2023-04-30T12:34:52.215Z,49.00
2023-04-30T12:37:19.914Z,48.50
2023-04-30T12:39:48.498Z,49.00
2023-04-30T12:42:19.766Z,50.90
2023-04-30T12:44:47.603Z,50.00
2023-04-30T12:47:15.483Z,51.90
2023-04-30T12:49:46.538Z,48.10
2023-04-30T12:52:15.500Z,49.40
2023-04-30T12:54:44.092Z,50.30
2023-04-30T12:57:13.060Z,49.20
2023-04-30T12:59:41.929Z,48.10
2023-04-30T13:02:10.672Z,49.40
2023-04-30T13:07:39.776Z,48.60
2023-04-30T13:10:07.864Z,51.00
2023-04-30T13:12:35.613Z,49.10
2023-04-30T13:15:03.923Z,49.90
2023-04-30T13:17:31.913Z,46.50
2023-04-30T13:19:59.924Z,48.60
2023-04-30T13:22:29.623Z,50.70
2023-04-30T13:25:01.451Z,51.50
2023-04-30T13:27:29.542Z,47.10
2023-04-30T13:29:57.640Z,45.30
2023-04-30T13:32:25.761Z,45.30
2023-04-30T13:34:55.052Z,46.40
2023-04-30T13:37:23.110Z,44.90
2023-04-30T13:39:51.122Z,46.00
2023-04-30T13:42:20.387Z,46.80
2023-04-30T13:44:49.944Z,45.30
2023-04-30T13:47:17.968Z,46.60
2023-04-30T13:49:45.923Z,46.10
2023-04-30T13:52:14.125Z,47.20
2023-04-30T13:54:42.076Z,46.20
2023-04-30T13:57:10.194Z,45.70
2023-04-30T13:59:39.519Z,44.30
2023-04-30T14:02:08.428Z,45.60
2023-04-30T14:04:36.372Z,48.20
2023-04-30T14:07:04.942Z,46.60
2023-04-30T14:09:32.890Z,46.20
2023-04-30T14:12:00.794Z,46.30
2023-04-30T14:14:28.894Z,45.80
2023-04-30T14:16:58.427Z,46.30
2023-04-30T14:19:26.790Z,46.10
2023-04-30T14:21:55.514Z,44.90
2023-04-30T14:24:23.748Z,46.20
2023-04-30T14:26:51.652Z,45.90
2023-04-30T14:29:21.606Z,44.90
2023-04-30T14:31:49.876Z,45.20
2023-04-30T14:34:19.689Z,46.20
2023-04-30T14:36:48.074Z,45.00
2023-04-30T14:39:16.024Z,47.50
2023-04-30T14:41:44.151Z,46.20
2023-04-30T14:44:12.033Z,43.70
2023-04-30T14:46:40.778Z,44.20
2023-04-30T14:49:08.705Z,43.50
2023-04-30T14:51:37.984Z,42.70
2023-04-30T14:54:06.120Z,44.20
2023-04-30T14:56:34.189Z,42.60
2023-04-30T14:59:02.150Z,46.30
2023-04-30T15:01:30.502Z,44.40
2023-04-30T15:03:58.775Z,43.80
2023-04-30T15:06:26.878Z,45.30
2023-04-30T15:08:56.570Z,44.50
2023-04-30T15:11:25.054Z,43.40
2023-04-30T15:13:54.538Z,45.40
2023-04-30T15:16:22.911Z,45.00
2023-04-30T15:18:50.903Z,44.20
2023-04-30T15:21:18.840Z,44.80
2023-04-30T15:23:46.914Z,43.70
2023-04-30T15:26:16.279Z,43.50
2023-04-30T15:28:44.300Z,43.10
2023-04-30T15:31:12.247Z,43.90
2023-04-30T15:33:42.095Z,44.30
2023-04-30T15:36:11.418Z,42.50
2023-04-30T15:38:40.276Z,43.50
2023-04-30T15:41:08.207Z,45.60
2023-04-30T15:43:37.482Z,41.60
2023-04-30T15:46:05.612Z,42.60
2023-04-30T15:48:33.577Z,40.70
2023-04-30T15:51:01.688Z,40.40
2023-04-30T15:53:29.616Z,40.00
2023-04-30T15:55:58.142Z,38.50
2023-04-30T15:58:26.116Z,38.20
2023-04-30T16:00:55.529Z,38.70
2023-04-30T16:03:23.566Z,38.40
2023-04-30T16:05:51.778Z,37.70
2023-04-30T16:08:19.875Z,38.10
2023-04-30T16:10:48.081Z,37.50
2023-04-30T16:13:16.163Z,37.10
2023-04-30T16:15:44.065Z,37.00
2023-04-30T16:18:13.469Z,37.50
2023-04-30T16:20:43.108Z,36.80
2023-04-30T16:23:11.329Z,38.60
2023-04-30T16:25:39.283Z,37.90
2023-04-30T16:28:07.212Z,38.10
2023-04-30T16:30:35.816Z,40.00
2023-04-30T16:33:04.086Z,40.60
2023-04-30T16:35:33.363Z,41.40
2023-04-30T16:38:02.536Z,42.60
2023-04-30T16:40:30.861Z,43.20
2023-04-30T16:43:00.578Z,42.90
2023-04-30T16:45:30.198Z,42.80
2023-04-30T16:47:58.315Z,41.30
2023-04-30T16:50:27.142Z,42.30
2023-04-30T16:52:56.517Z,42.10
2023-04-30T16:55:25.074Z,41.70
2023-04-30T16:57:53.848Z,40.20
2023-04-30T17:00:21.986Z,40.50
2023-04-30T17:02:50.287Z,39.50
2023-04-30T17:05:18.262Z,39.20
2023-04-30T17:07:46.301Z,38.90
2023-04-30T17:10:17.292Z,39.20
2023-04-30T17:12:45.317Z,40.70
2023-04-30T17:15:13.333Z,41.20
2023-04-30T17:17:41.524Z,40.70
2023-04-30T17:20:10.237Z,42.00
2023-04-30T17:22:38.279Z,41.00
2023-04-30T17:25:06.745Z,41.60
2023-04-30T17:27:36.039Z,42.90
2023-04-30T17:30:04.915Z,41.30
2023-04-30T17:32:32.854Z,41.70
2023-04-30T17:35:02.650Z,42.30
2023-04-30T17:37:30.540Z,42.40
2023-04-30T17:39:58.720Z,43.00
2023-04-30T17:42:26.819Z,42.30
2023-04-30T17:44:56.084Z,43.10
2023-04-30T17:47:24.136Z,45.60
2023-04-30T17:49:52.071Z,44.60
2023-04-30T17:52:20.128Z,46.00
2023-04-30T17:54:48.018Z,45.50
2023-04-30T17:57:15.887Z,47.00
2023-04-30T17:59:43.750Z,47.80
2023-04-30T18:02:13.085Z,48.10
2023-04-30T18:04:41.085Z,48.50
2023-04-30T18:07:09.340Z,49.20
2023-04-30T18:09:37.260Z,49.90
2023-04-30T18:12:05.252Z,50.70
2023-04-30T18:14:33.154Z,50.50
2023-04-30T18:17:01.050Z,50.80
2023-04-30T18:19:30.370Z,51.70
2023-04-30T18:21:58.264Z,52.30
2023-04-30T18:24:27.779Z,51.70
2023-04-30T18:26:55.823Z,52.60
2023-04-30T18:29:24.621Z,54.00
2023-04-30T18:31:52.909Z,54.60
2023-04-30T18:34:21.214Z,55.20
2023-04-30T18:36:50.701Z,59.00
2023-04-30T18:39:18.588Z,58.00
2023-04-30T18:41:46.500Z,61.60
2023-04-30T18:44:14.450Z,61.90
2023-04-30T18:46:42.688Z,62.40
2023-04-30T18:49:10.577Z,63.10
2023-04-30T18:51:38.458Z,63.70
2023-04-30T18:54:07.719Z,64.00
2023-04-30T18:56:36.865Z,64.90
2023-04-30T18:59:04.839Z,66.20
2023-04-30T19:01:32.809Z,67.40
2023-04-30T19:04:01.579Z,66.80
2023-04-30T19:06:30.747Z,67.40
2023-04-30T19:08:59.637Z,69.20
2023-04-30T19:11:29.036Z,68.10
2023-04-30T19:13:58.444Z,68.50
2023-04-30T19:16:26.422Z,68.60
2023-04-30T19:18:54.425Z,66.30
2023-04-30T19:21:23.427Z,64.10
2023-04-30T19:23:51.322Z,64.90
2023-04-30T19:26:19.480Z,66.00
2023-04-30T19:28:48.706Z,66.70
2023-04-30T19:31:16.744Z,67.20
2023-04-30T19:33:44.836Z,67.60
2023-04-30T19:36:13.302Z,67.50
2023-04-30T19:38:41.372Z,68.50
2023-04-30T19:41:09.297Z,68.40
2023-04-30T19:43:37.272Z,70.80
2023-04-30T19:46:07.351Z,70.70
2023-04-30T19:48:35.449Z,71.10
2023-04-30T19:51:06.646Z,71.20
2023-04-30T19:53:34.610Z,71.40
2023-04-30T19:56:02.481Z,71.70
2023-04-30T19:58:30.464Z,72.30
2023-04-30T20:00:58.359Z,70.70
2023-04-30T20:03:28.390Z,72.10
2023-04-30T20:05:56.503Z,72.30
2023-04-30T20:08:24.630Z,72.90
2023-04-30T20:10:52.535Z,73.50
2023-04-30T20:13:21.026Z,73.60
2023-04-30T20:15:49.136Z,72.90
2023-04-30T20:18:17.048Z,73.00
2023-04-30T20:20:46.326Z,72.70
2023-04-30T20:23:16.070Z,72.80
2023-04-30T20:25:44.816Z,72.70
2023-04-30T20:28:13.255Z,70.30
2023-04-30T20:30:42.804Z,71.60
2023-04-30T20:33:10.892Z,72.00
2023-04-30T20:35:41.434Z,72.70
2023-04-30T20:38:10.766Z,72.10
2023-04-30T20:40:40.257Z,72.60
2023-04-30T20:43:08.330Z,72.10
2023-04-30T20:45:36.593Z,72.10
2023-04-30T20:48:05.587Z,72.60
2023-04-30T20:50:34.110Z,73.00
2023-04-30T20:53:02.049Z,73.40
2023-04-30T20:55:32.429Z,72.20
2023-04-30T20:58:00.374Z,73.20
2023-04-30T21:00:28.262Z,73.70
2023-04-30T21:02:56.316Z,74.20
2023-04-30T21:05:24.406Z,74.30
2023-04-30T21:07:52.611Z,74.10
2023-04-30T21:10:20.576Z,73.60
2023-04-30T21:12:49.869Z,73.60
2023-04-30T21:15:17.989Z,73.50
2023-04-30T21:17:45.955Z,73.70
2023-04-30T21:20:14.385Z,74.20
2023-04-30T21:22:42.282Z,74.30
2023-04-30T21:25:12.143Z,74.50
2023-04-30T21:27:40.405Z,74.50
2023-04-30T21:30:10.770Z,74.90
2023-04-30T21:32:39.304Z,74.80
2023-04-30T21:35:08.061Z,75.20
2023-04-30T21:37:36.252Z,75.40
2023-04-30T21:40:04.700Z,75.70
2023-04-30T21:42:33.699Z,75.80
2023-04-30T21:45:01.625Z,76.00
2023-04-30T21:47:31.631Z,75.80
2023-04-30T21:49:59.624Z,75.70
2023-04-30T21:52:27.609Z,75.90
2023-04-30T21:54:55.755Z,76.00
2023-04-30T21:57:24.053Z,76.20
2023-04-30T21:59:51.893Z,76.20
2023-04-30T22:02:24.144Z,76.40
2023-04-30T22:04:55.321Z,76.30
2023-04-30T22:07:23.927Z,76.30
2023-04-30T22:09:52.679Z,76.40
2023-04-30T22:12:21.535Z,76.50
2023-04-30T22:14:53.080Z,76.60
2023-04-30T22:17:21.594Z,76.70
2023-04-30T22:19:49.646Z,77.00
2023-04-30T22:22:18.855Z,77.00
2023-04-30T22:24:46.798Z,77.20
2023-04-30T22:27:14.849Z,76.90
2023-04-30T22:29:43.732Z,76.90
2023-04-30T22:32:12.217Z,76.80
2023-04-30T22:34:41.738Z,76.90
2023-04-30T22:37:11.152Z,77.20
2023-04-30T22:39:40.791Z,76.90
2023-04-30T22:42:10.156Z,76.90
2023-04-30T22:44:38.689Z,77.10
2023-04-30T22:47:06.855Z,77.30
2023-04-30T22:49:37.070Z,77.30
2023-04-30T22:52:05.012Z,77.40
2023-04-30T22:54:32.950Z,77.40
2023-04-30T22:57:03.003Z,77.70
2023-04-30T22:59:30.883Z,77.50
2023-04-30T23:01:58.769Z,77.40
2023-04-30T23:04:26.995Z,77.60
2023-04-30T23:06:55.018Z,77.60
2023-04-30T23:09:22.911Z,77.60
2023-04-30T23:11:50.974Z,77.60
2023-04-30T23:14:20.207Z,77.60
2023-04-30T23:16:48.127Z,77.70
2023-04-30T23:19:16.005Z,77.70
2023-04-30T23:21:43.891Z,78.00
2023-04-30T23:24:11.760Z,78.30
2023-04-30T23:26:39.996Z,78.40
2023-04-30T23:29:07.857Z,78.20
2023-04-30T23:31:37.611Z,78.40
2023-04-30T23:34:05.730Z,78.50
2023-04-30T23:36:33.782Z,78.40
2023-04-30T23:39:01.641Z,78.30
2023-04-30T23:41:29.515Z,78.50
2023-04-30T23:43:57.399Z,78.50
2023-04-30T23:46:25.338Z,78.70
2023-04-30T23:48:54.590Z,78.80
2023-04-30T23:51:22.592Z,78.80
2023-04-30T23:53:50.519Z,79.00
2023-04-30T23:56:18.416Z,79.00
2023-04-30T23:58:46.357Z,79.00
